createdAt,value
2019-04-27T00:00:39.312Z,0.00
2019-04-27T00:01:40.604Z,0.00
2019-04-27T00:02:39.308Z,0.00
2019-04-27T00:03:41.387Z,0.00
2019-04-27T00:04:39.300Z,0.00
2019-04-27T00:05:39.296Z,0.00
2019-04-27T00:06:42.919Z,0.00
2019-04-27T00:07:39.294Z,0.00
2019-04-27T00:08:39.496Z,0.00
2019-04-27T00:09:43.189Z,0.00
2019-04-27T00:10:39.284Z,0.00
2019-04-27T00:11:42.092Z,0.00
2019-04-27T00:12:39.281Z,0.00
2019-04-27T00:13:40.704Z,0.00
2019-04-27T00:14:39.275Z,0.00
2019-04-27T00:15:39.274Z,0.00
2019-04-27T00:16:40.459Z,0.00
2019-04-27T00:17:48.569Z,0.00
2019-04-27T00:18:39.294Z,0.00
2019-04-27T00:19:39.259Z,0.00
2019-04-27T00:20:39.258Z,0.00
2019-04-27T00:21:39.250Z,0.00
2019-04-27T00:22:39.254Z,0.00
2019-04-27T00:23:39.281Z,0.00
2019-04-27T00:24:39.252Z,0.00
2019-04-27T00:25:39.245Z,0.00
2019-04-27T00:26:39.237Z,0.00
2019-04-27T00:27:39.244Z,0.00
2019-04-27T00:28:39.268Z,0.00
2019-04-27T00:29:39.240Z,0.00
2019-04-27T00:30:39.235Z,0.00
2019-04-27T00:31:39.231Z,0.00
2019-04-27T00:32:39.893Z,0.00
2019-04-27T00:33:39.279Z,0.00
2019-04-27T00:34:39.226Z,0.00
2019-04-27T00:35:39.224Z,0.00
2019-04-27T00:36:39.218Z,0.00
2019-04-27T00:37:39.220Z,0.00
2019-04-27T00:38:39.219Z,0.00
2019-04-27T00:39:39.242Z,0.00
2019-04-27T00:40:39.209Z,0.00
2019-04-27T00:41:39.209Z,0.00
2019-04-27T00:42:39.205Z,0.00
2019-04-27T00:43:39.208Z,0.00
2019-04-27T00:44:39.231Z,0.00
2019-04-27T00:45:39.198Z,0.00
2019-04-27T00:46:39.194Z,0.00
2019-04-27T00:47:39.195Z,0.00
2019-04-27T00:48:39.191Z,0.00
2019-04-27T00:49:39.216Z,0.00
2019-04-27T00:50:39.183Z,0.00
2019-04-27T00:51:39.184Z,0.00
2019-04-27T00:52:39.192Z,0.00
2019-04-27T00:53:39.180Z,0.00
2019-04-27T00:54:39.205Z,0.00
2019-04-27T00:55:39.181Z,0.00
2019-04-27T00:56:39.180Z,0.00
2019-04-27T00:57:39.169Z,0.00
2019-04-27T00:58:39.169Z,0.00
2019-04-27T00:59:39.190Z,0.00
2019-04-27T01:00:39.161Z,0.00
2019-04-27T01:01:39.159Z,0.00
2019-04-27T01:02:39.157Z,0.00
2019-04-27T01:03:39.165Z,0.00
2019-04-27T01:04:39.194Z,0.00
2019-04-27T01:05:39.150Z,0.00
2019-04-27T01:06:39.154Z,0.00
2019-04-27T01:07:39.147Z,0.00
2019-04-27T01:08:39.146Z,0.00
2019-04-27T01:09:39.171Z,0.00
2019-04-27T01:10:39.139Z,0.00
2019-04-27T01:11:39.137Z,0.00
2019-04-27T01:12:39.135Z,0.00
2019-04-27T01:13:39.127Z,0.00
2019-04-27T01:14:39.159Z,0.00
2019-04-27T01:15:39.128Z,0.00
2019-04-27T01:16:39.243Z,0.00
2019-04-27T01:17:39.148Z,0.00
2019-04-27T01:18:39.122Z,0.00
2019-04-27T01:19:39.294Z,0.00
2019-04-27T01:20:39.144Z,0.00
2019-04-27T01:21:39.675Z,0.00
2019-04-27T01:22:39.251Z,0.00
2019-04-27T01:23:39.109Z,0.00
2019-04-27T01:24:39.201Z,0.00
2019-04-27T01:25:39.137Z,0.00
2019-04-27T01:26:39.107Z,0.00
2019-04-27T01:27:39.406Z,0.00
2019-04-27T01:28:39.100Z,0.00
2019-04-27T01:29:39.245Z,0.00
2019-04-27T01:30:39.253Z,0.00
2019-04-27T01:31:39.599Z,0.00
2019-04-27T01:32:39.258Z,0.00
2019-04-27T01:33:39.083Z,0.00
2019-04-27T01:34:39.638Z,0.00
2019-04-27T01:35:39.249Z,0.00
2019-04-27T01:36:39.283Z,0.00
2019-04-27T01:37:39.080Z,0.00
2019-04-27T01:38:41.028Z,0.00
2019-04-27T01:39:39.077Z,0.00
2019-04-27T01:40:39.098Z,0.00
2019-04-27T01:41:39.175Z,0.00
2019-04-27T01:42:39.520Z,0.00
2019-04-27T01:43:39.059Z,0.00
2019-04-27T01:44:39.421Z,0.00
2019-04-27T01:45:39.232Z,0.00
2019-04-27T01:46:39.628Z,0.00
2019-04-27T01:47:39.187Z,0.00
2019-04-27T01:48:39.048Z,0.00
2019-04-27T01:49:39.692Z,0.00
2019-04-27T01:50:39.255Z,0.00
2019-04-27T01:51:39.222Z,0.00
2019-04-27T01:52:39.041Z,0.00
2019-04-27T01:53:39.144Z,0.00
2019-04-27T01:54:40.965Z,0.00
2019-04-27T01:55:40.744Z,0.00
2019-04-27T01:56:39.448Z,0.00
2019-04-27T01:57:39.032Z,0.00
2019-04-27T01:58:39.346Z,0.00
2019-04-27T01:59:39.026Z,0.00
2019-04-27T02:00:39.579Z,0.00
2019-04-27T02:01:39.062Z,0.00
2019-04-27T02:02:39.350Z,0.00
2019-04-27T02:03:39.014Z,0.00
2019-04-27T02:04:39.582Z,0.00
2019-04-27T02:05:39.155Z,0.00
2019-04-27T02:06:39.034Z,0.00
2019-04-27T02:07:39.047Z,0.00
2019-04-27T02:08:40.346Z,0.00
2019-04-27T02:09:38.995Z,0.00
2019-04-27T02:10:39.610Z,0.00
2019-04-27T02:11:39.019Z,0.00
2019-04-27T02:12:39.744Z,0.00
2019-04-27T02:13:38.987Z,0.00
2019-04-27T02:14:39.094Z,0.00
2019-04-27T02:15:39.551Z,0.00
2019-04-27T02:16:39.223Z,0.00
2019-04-27T02:17:38.981Z,0.00
2019-04-27T02:18:40.041Z,0.00
2019-04-27T02:19:39.366Z,0.00
2019-04-27T02:20:38.967Z,0.00
2019-04-27T02:21:39.277Z,0.00
2019-04-27T02:22:38.967Z,0.00
2019-04-27T02:23:39.381Z,0.00
2019-04-27T02:24:39.097Z,0.00
2019-04-27T02:25:39.631Z,0.00
2019-04-27T02:26:39.853Z,0.00
2019-04-27T02:27:38.973Z,0.00
2019-04-27T02:28:39.412Z,0.00
2019-04-27T02:29:39.092Z,0.00
2019-04-27T02:30:40.973Z,0.00
2019-04-27T02:31:40.351Z,0.00
2019-04-27T02:32:39.793Z,0.00
2019-04-27T02:33:40.369Z,0.00
2019-04-27T02:34:39.881Z,0.00
2019-04-27T02:35:39.528Z,0.00
2019-04-27T02:36:39.229Z,0.00
2019-04-27T02:37:40.262Z,0.00
2019-04-27T02:38:40.537Z,0.00
2019-04-27T02:39:39.818Z,0.00
2019-04-27T02:40:42.110Z,0.00
2019-04-27T02:41:40.013Z,0.00
2019-04-27T02:42:39.333Z,0.00
2019-04-27T02:43:39.992Z,0.00
2019-04-27T02:44:40.561Z,0.00
2019-04-27T02:45:40.281Z,0.00
2019-04-27T02:46:39.550Z,0.00
2019-04-27T02:47:40.814Z,0.00
2019-04-27T02:48:52.922Z,0.00
2019-04-27T02:49:40.607Z,0.00
2019-04-27T02:50:39.945Z,0.00
2019-04-27T02:51:42.540Z,0.00
2019-04-27T02:52:40.509Z,0.00
2019-04-27T02:53:39.281Z,0.00
2019-04-27T02:54:39.956Z,0.00
2019-04-27T02:55:39.695Z,0.00
2019-04-27T02:56:40.537Z,0.00
2019-04-27T02:57:39.956Z,0.00
2019-04-27T02:58:40.692Z,0.00
2019-04-27T02:59:39.923Z,0.00
2019-04-27T03:00:39.974Z,0.00
2019-04-27T03:01:43.615Z,0.00
2019-04-27T03:02:40.146Z,0.00
2019-04-27T03:03:40.941Z,0.00
2019-04-27T03:04:39.911Z,0.00
2019-04-27T03:05:39.873Z,0.00
2019-04-27T03:06:39.765Z,0.00
2019-04-27T03:07:39.937Z,0.00
2019-04-27T03:08:39.764Z,0.00
2019-04-27T03:09:39.526Z,0.00
2019-04-27T03:10:40.072Z,0.00
2019-04-27T03:11:39.532Z,0.00
2019-04-27T03:12:39.840Z,0.00
2019-04-27T03:13:40.527Z,0.00
2019-04-27T03:14:40.460Z,0.00
2019-04-27T03:15:40.297Z,0.00
2019-04-27T03:16:39.523Z,0.00
2019-04-27T03:17:39.569Z,0.00
2019-04-27T03:18:40.296Z,0.00
2019-04-27T03:19:39.840Z,0.00
2019-04-27T03:20:40.323Z,0.00
2019-04-27T03:21:39.597Z,0.00
2019-04-27T03:22:39.824Z,0.00
2019-04-27T03:23:41.013Z,0.00
2019-04-27T03:24:39.427Z,0.00
2019-04-27T03:25:40.046Z,0.00
2019-04-27T03:26:39.436Z,0.00
2019-04-27T03:27:40.483Z,0.00
2019-04-27T03:28:40.182Z,0.00
2019-04-27T03:29:39.074Z,0.00
2019-04-27T03:30:42.617Z,0.00
2019-04-27T03:31:42.524Z,0.00
2019-04-27T03:32:42.735Z,0.00
2019-04-27T03:33:42.803Z,0.00
2019-04-27T03:34:41.969Z,0.00
2019-04-27T03:35:43.155Z,0.00
2019-04-27T03:36:39.554Z,0.00
2019-04-27T03:37:40.345Z,0.00
2019-04-27T03:38:39.705Z,0.00
2019-04-27T03:39:39.681Z,0.00
2019-04-27T03:40:40.396Z,0.00
2019-04-27T03:41:40.991Z,0.00
2019-04-27T03:42:40.289Z,0.00
2019-04-27T03:43:40.245Z,0.00
2019-04-27T03:44:39.781Z,0.00
2019-04-27T03:45:40.004Z,0.00
2019-04-27T03:46:39.684Z,0.00
2019-04-27T03:47:40.777Z,0.00
2019-04-27T03:48:40.691Z,0.00
2019-04-27T03:49:41.522Z,0.00
2019-04-27T03:50:39.885Z,0.00
2019-04-27T03:51:40.282Z,0.00
2019-04-27T03:52:39.730Z,5.63
2019-04-27T03:53:39.632Z,5.63
2019-04-27T03:54:40.107Z,5.63
2019-04-27T03:55:39.836Z,5.63
2019-04-27T03:56:39.512Z,5.63
2019-04-27T03:57:40.304Z,5.63
2019-04-27T03:58:39.570Z,5.63
2019-04-27T03:59:40.558Z,5.63
2019-04-27T04:00:39.832Z,11.25
2019-04-27T04:01:39.584Z,11.25
2019-04-27T04:02:40.529Z,11.25
2019-04-27T04:03:39.309Z,11.25
2019-04-27T04:04:40.544Z,11.25
2019-04-27T04:05:39.817Z,11.25
2019-04-27T04:06:40.030Z,16.88
2019-04-27T04:07:40.185Z,16.88
2019-04-27T04:08:39.752Z,16.88
2019-04-27T04:09:40.229Z,16.88
2019-04-27T04:10:39.791Z,22.50
2019-04-27T04:11:39.571Z,22.50
2019-04-27T04:12:40.006Z,22.50
2019-04-27T04:13:39.687Z,22.50
2019-04-27T04:14:42.663Z,28.13
2019-04-27T04:15:39.770Z,28.13
2019-04-27T04:16:39.440Z,33.75
2019-04-27T04:17:40.267Z,39.38
2019-04-27T04:18:39.696Z,45.00
2019-04-27T04:19:51.053Z,45.00
2019-04-27T04:20:40.474Z,50.63
2019-04-27T04:21:40.057Z,50.63
2019-04-27T04:22:40.345Z,56.25
2019-04-27T04:23:40.228Z,56.25
2019-04-27T04:24:39.737Z,56.25
2019-04-27T04:25:40.892Z,56.25
2019-04-27T04:26:40.236Z,61.88
2019-04-27T04:27:40.122Z,61.88
2019-04-27T04:28:39.614Z,61.88
2019-04-27T04:29:39.477Z,61.88
2019-04-27T04:30:40.298Z,67.50
2019-04-27T04:31:40.490Z,67.50
2019-04-27T04:32:39.594Z,67.50
2019-04-27T04:33:40.308Z,67.50
2019-04-27T04:34:39.917Z,67.50
2019-04-27T04:35:39.734Z,67.50
2019-04-27T04:36:39.794Z,73.13
2019-04-27T04:37:39.415Z,78.75
2019-04-27T04:38:40.182Z,84.38
2019-04-27T04:39:40.346Z,90.00
2019-04-27T04:40:40.074Z,95.63
2019-04-27T04:41:40.599Z,95.63
2019-04-27T04:42:39.219Z,95.63
2019-04-27T04:43:39.742Z,101.25
2019-04-27T04:44:40.022Z,101.25
2019-04-27T04:45:39.316Z,106.88
2019-04-27T04:46:39.952Z,118.13
2019-04-27T04:47:40.768Z,123.75
2019-04-27T04:48:40.354Z,129.38
2019-04-27T04:49:39.729Z,135.00
2019-04-27T04:50:39.790Z,140.63
2019-04-27T04:51:40.142Z,151.88
2019-04-27T04:52:39.641Z,157.50
2019-04-27T04:53:40.580Z,163.13
2019-04-27T04:54:40.691Z,163.13
2019-04-27T04:55:39.276Z,163.13
2019-04-27T04:56:39.254Z,168.75
2019-04-27T04:57:39.983Z,174.38
2019-04-27T04:58:39.263Z,174.38
2019-04-27T04:59:39.098Z,180.00
2019-04-27T05:00:40.037Z,185.63
2019-04-27T05:01:39.925Z,196.88
2019-04-27T05:02:39.611Z,196.88
2019-04-27T05:03:38.930Z,202.50
2019-04-27T05:04:39.095Z,208.13
2019-04-27T05:05:41.085Z,208.13
2019-04-27T05:06:38.968Z,213.75
2019-04-27T05:07:38.852Z,219.38
2019-04-27T05:08:39.391Z,225.00
2019-04-27T05:09:39.587Z,236.25
2019-04-27T05:10:39.498Z,241.88
2019-04-27T05:11:39.629Z,253.13
2019-04-27T05:12:38.762Z,258.75
2019-04-27T05:13:39.367Z,264.38
2019-04-27T05:14:38.947Z,270.00
2019-04-27T05:15:39.466Z,281.25
2019-04-27T05:16:39.050Z,286.88
2019-04-27T05:17:39.887Z,298.13
2019-04-27T05:18:39.416Z,309.38
2019-04-27T05:19:38.933Z,315.00
2019-04-27T05:20:39.675Z,315.00
2019-04-27T05:21:38.923Z,320.63
2019-04-27T05:22:39.266Z,320.63
2019-04-27T05:23:38.858Z,326.25
2019-04-27T05:24:39.324Z,326.25
2019-04-27T05:25:39.055Z,331.88
2019-04-27T05:26:39.711Z,337.50
2019-04-27T05:27:38.949Z,343.13
2019-04-27T05:28:40.638Z,348.75
2019-04-27T05:29:38.980Z,354.38
2019-04-27T05:30:39.090Z,360.00
2019-04-27T05:31:38.925Z,365.63
2019-04-27T05:32:39.366Z,371.25
2019-04-27T05:33:38.914Z,376.88
2019-04-27T05:34:39.467Z,376.88
2019-04-27T05:35:40.960Z,382.50
2019-04-27T05:36:43.480Z,382.50
2019-04-27T05:37:38.964Z,388.13
2019-04-27T05:38:41.914Z,393.75
2019-04-27T05:39:39.039Z,405.00
2019-04-27T05:40:39.893Z,410.63
2019-04-27T05:41:41.469Z,416.25
2019-04-27T05:42:39.714Z,416.25
2019-04-27T05:43:39.019Z,416.25
2019-04-27T05:44:39.680Z,433.13
2019-04-27T05:45:39.645Z,421.88
2019-04-27T05:46:39.671Z,421.88
2019-04-27T05:47:39.244Z,427.50
2019-04-27T05:48:38.905Z,438.75
2019-04-27T05:49:42.809Z,450.00
2019-04-27T05:50:43.479Z,461.25
2019-04-27T05:51:41.724Z,466.88
2019-04-27T05:52:38.673Z,478.13
2019-04-27T05:53:39.576Z,483.75
2019-04-27T05:54:38.667Z,489.38
2019-04-27T05:55:39.301Z,489.38
2019-04-27T05:56:39.012Z,489.38
2019-04-27T05:57:39.046Z,489.38
2019-04-27T05:58:39.224Z,489.38
2019-04-27T05:59:39.800Z,489.38
2019-04-27T06:00:39.362Z,489.38
2019-04-27T06:01:39.052Z,495.00
2019-04-27T06:02:39.847Z,500.63
2019-04-27T06:03:39.695Z,506.25
2019-04-27T06:04:39.361Z,517.50
2019-04-27T06:05:39.208Z,528.75
2019-04-27T06:06:39.845Z,534.38
2019-04-27T06:07:39.619Z,545.63
2019-04-27T06:08:39.281Z,545.63
2019-04-27T06:09:39.126Z,551.25
2019-04-27T06:10:38.754Z,556.88
2019-04-27T06:11:40.038Z,568.13
2019-04-27T06:12:39.579Z,568.13
2019-04-27T06:13:39.254Z,579.38
2019-04-27T06:14:39.327Z,585.00
2019-04-27T06:15:38.934Z,590.63
2019-04-27T06:16:39.392Z,596.25
2019-04-27T06:17:38.753Z,601.88
2019-04-27T06:18:39.221Z,601.88
2019-04-27T06:19:39.072Z,607.50
2019-04-27T06:20:50.303Z,613.13
2019-04-27T06:21:40.091Z,618.75
2019-04-27T06:22:39.020Z,618.75
2019-04-27T06:23:39.078Z,613.13
2019-04-27T06:24:39.716Z,607.50
2019-04-27T06:25:39.363Z,601.88
2019-04-27T06:26:39.947Z,590.63
2019-04-27T06:27:39.680Z,590.63
2019-04-27T06:28:39.767Z,590.63
2019-04-27T06:29:40.587Z,601.88
2019-04-27T06:30:39.204Z,618.75
2019-04-27T06:31:39.661Z,630.00
2019-04-27T06:32:39.583Z,635.63
2019-04-27T06:33:39.120Z,635.63
2019-04-27T06:34:39.055Z,641.25
2019-04-27T06:35:39.929Z,652.50
2019-04-27T06:36:38.815Z,675.00
2019-04-27T06:37:38.961Z,703.13
2019-04-27T06:38:39.408Z,748.13
2019-04-27T06:39:38.734Z,793.13
2019-04-27T06:40:39.162Z,826.88
2019-04-27T06:41:39.976Z,860.63
2019-04-27T06:42:39.789Z,877.50
2019-04-27T06:43:38.433Z,894.38
2019-04-27T06:44:39.475Z,894.38
2019-04-27T06:45:38.858Z,894.38
2019-04-27T06:46:38.573Z,888.75
2019-04-27T06:47:39.702Z,883.13
2019-04-27T06:48:39.462Z,883.13
2019-04-27T06:49:39.577Z,877.50
2019-04-27T06:50:38.992Z,883.13
2019-04-27T06:51:40.044Z,888.75
2019-04-27T06:52:39.023Z,888.75
2019-04-27T06:53:39.489Z,888.75
2019-04-27T06:54:38.962Z,883.13
2019-04-27T06:55:39.181Z,871.88
2019-04-27T06:56:38.983Z,866.25
2019-04-27T06:57:39.119Z,866.25
2019-04-27T06:58:40.478Z,860.63
2019-04-27T06:59:39.833Z,866.25
2019-04-27T07:00:39.498Z,877.50
2019-04-27T07:01:39.058Z,900.00
2019-04-27T07:02:39.246Z,922.50
2019-04-27T07:03:39.570Z,945.00
2019-04-27T07:04:39.145Z,973.13
2019-04-27T07:05:38.876Z,1001.25
2019-04-27T07:06:51.127Z,1035.00
2019-04-27T07:07:39.501Z,1051.88
2019-04-27T07:08:40.105Z,1068.75
2019-04-27T07:09:39.280Z,1080.00
2019-04-27T07:10:39.161Z,1085.63
2019-04-27T07:11:39.384Z,1091.25
2019-04-27T07:12:40.885Z,1091.25
2019-04-27T07:13:39.008Z,1091.25
2019-04-27T07:14:51.794Z,1096.88
2019-04-27T07:15:38.809Z,1096.88
2019-04-27T07:16:39.206Z,1091.25
2019-04-27T07:17:38.870Z,1085.63
2019-04-27T07:18:39.686Z,1080.00
2019-04-27T07:19:39.704Z,1074.38
2019-04-27T07:20:38.885Z,1074.38
2019-04-27T07:21:39.941Z,1074.38
2019-04-27T07:22:39.688Z,1085.63
2019-04-27T07:23:39.035Z,1102.50
2019-04-27T07:24:38.808Z,1119.38
2019-04-27T07:25:38.882Z,1141.88
2019-04-27T07:26:39.039Z,1158.75
2019-04-27T07:27:39.451Z,1181.25
2019-04-27T07:28:39.245Z,1209.38
2019-04-27T07:29:40.341Z,1237.50
2019-04-27T07:30:38.865Z,1271.25
2019-04-27T07:31:40.108Z,1288.13
2019-04-27T07:32:39.064Z,1316.25
2019-04-27T07:33:39.550Z,1344.38
2019-04-27T07:34:38.820Z,1372.50
2019-04-27T07:35:39.301Z,1406.25
2019-04-27T07:36:39.260Z,1411.88
2019-04-27T07:37:39.430Z,1417.50
2019-04-27T07:38:39.486Z,1434.38
2019-04-27T07:39:39.135Z,1462.50
2019-04-27T07:40:41.636Z,1485.00
2019-04-27T07:41:38.883Z,1490.63
2019-04-27T07:42:39.701Z,1501.88
2019-04-27T07:43:39.613Z,1513.13
2019-04-27T07:44:39.093Z,1507.50
2019-04-27T07:45:39.561Z,1490.63
2019-04-27T07:46:38.637Z,1451.25
2019-04-27T07:47:39.355Z,1400.63
2019-04-27T07:48:39.622Z,1327.50
2019-04-27T07:49:39.090Z,1248.75
2019-04-27T07:50:39.016Z,1186.88
2019-04-27T07:51:39.286Z,1141.88
2019-04-27T07:52:40.373Z,1125.00
2019-04-27T07:53:38.995Z,1113.75
2019-04-27T07:54:38.874Z,1113.75
2019-04-27T07:55:39.462Z,1113.75
2019-04-27T07:56:38.995Z,1113.75
2019-04-27T07:57:39.976Z,1113.75
2019-04-27T07:58:39.564Z,1113.75
2019-04-27T07:59:41.665Z,1113.75
2019-04-27T08:00:39.487Z,1119.38
2019-04-27T08:01:39.323Z,1130.63
2019-04-27T08:02:39.045Z,1147.50
2019-04-27T08:03:39.024Z,1164.38
2019-04-27T08:04:39.936Z,1181.25
2019-04-27T08:05:39.166Z,1198.13
2019-04-27T08:06:38.840Z,1226.25
2019-04-27T08:07:39.180Z,1248.75
2019-04-27T08:08:39.645Z,1276.88
2019-04-27T08:09:39.762Z,1316.25
2019-04-27T08:10:39.209Z,1350.00
2019-04-27T08:11:39.167Z,1383.75
2019-04-27T08:12:38.665Z,1417.50
2019-04-27T08:13:39.378Z,1451.25
2019-04-27T08:14:38.532Z,1479.38
2019-04-27T08:15:39.614Z,1496.25
2019-04-27T08:16:38.926Z,1524.38
2019-04-27T08:17:40.536Z,1541.25
2019-04-27T08:18:39.609Z,1552.50
2019-04-27T08:19:39.412Z,1558.13
2019-04-27T08:20:39.115Z,1558.13
2019-04-27T08:21:44.599Z,1563.75
2019-04-27T08:22:38.890Z,1569.38
2019-04-27T08:23:39.419Z,1563.75
2019-04-27T08:24:39.575Z,1569.38
2019-04-27T08:25:39.211Z,1569.38
2019-04-27T08:26:39.505Z,1575.00
2019-04-27T08:27:39.404Z,1575.00
2019-04-27T08:28:38.677Z,1569.38
2019-04-27T08:29:39.340Z,1563.75
2019-04-27T08:30:39.371Z,1563.75
2019-04-27T08:31:38.704Z,1558.13
2019-04-27T08:32:39.067Z,1558.13
2019-04-27T08:33:38.918Z,1558.13
2019-04-27T08:34:39.714Z,1569.38
2019-04-27T08:35:38.930Z,1586.25
2019-04-27T08:36:38.835Z,1603.13
2019-04-27T08:37:38.716Z,1631.25
2019-04-27T08:38:38.936Z,1653.75
2019-04-27T08:39:39.638Z,1681.88
2019-04-27T08:40:39.351Z,1704.38
2019-04-27T08:41:39.471Z,1732.50
2019-04-27T08:42:39.116Z,1738.13
2019-04-27T08:43:39.027Z,1749.38
2019-04-27T08:44:39.758Z,1749.38
2019-04-27T08:45:39.234Z,1755.00
2019-04-27T08:46:38.627Z,1766.25
2019-04-27T08:47:39.513Z,1783.13
2019-04-27T08:48:39.291Z,1805.63
2019-04-27T08:49:39.442Z,1833.75
2019-04-27T08:50:41.674Z,1861.88
2019-04-27T08:51:39.225Z,1895.63
2019-04-27T08:52:39.392Z,1923.75
2019-04-27T08:53:39.777Z,1963.13
2019-04-27T08:54:39.387Z,1985.63
2019-04-27T08:55:39.477Z,2013.75
2019-04-27T08:56:39.619Z,2030.63
2019-04-27T08:57:38.876Z,2047.50
2019-04-27T08:58:38.714Z,2070.00
2019-04-27T08:59:39.342Z,2098.13
2019-04-27T09:00:39.099Z,2131.88
2019-04-27T09:01:39.686Z,2160.00
2019-04-27T09:02:44.071Z,2154.38
2019-04-27T09:03:39.515Z,2154.38
2019-04-27T09:04:39.499Z,2160.00
2019-04-27T09:05:39.081Z,2165.63
2019-04-27T09:06:39.941Z,2182.50
2019-04-27T09:07:39.752Z,2233.13
2019-04-27T09:08:40.796Z,2283.75
2019-04-27T09:09:39.688Z,2345.63
2019-04-27T09:10:38.846Z,2441.25
2019-04-27T09:11:39.221Z,2525.63
2019-04-27T09:12:39.350Z,2520.00
2019-04-27T09:13:39.394Z,2559.38
2019-04-27T09:14:38.959Z,2520.00
2019-04-27T09:15:39.128Z,2514.38
2019-04-27T09:16:38.999Z,2570.63
2019-04-27T09:17:39.699Z,2655.00
2019-04-27T09:18:38.972Z,2801.25
2019-04-27T09:19:39.377Z,2795.63
2019-04-27T09:20:39.077Z,2801.25
2019-04-27T09:21:39.551Z,2880.00
2019-04-27T09:22:39.188Z,2947.50
2019-04-27T09:23:38.981Z,3054.38
2019-04-27T09:24:39.662Z,3166.88
2019-04-27T09:25:39.637Z,3240.00
2019-04-27T09:26:39.022Z,3009.38
2019-04-27T09:27:39.079Z,2829.38
2019-04-27T09:28:38.858Z,2677.50
2019-04-27T09:29:39.493Z,2863.13
2019-04-27T09:30:39.311Z,2880.00
2019-04-27T09:31:39.494Z,2880.00
2019-04-27T09:32:40.728Z,3003.75
2019-04-27T09:33:38.727Z,2981.25
2019-04-27T09:34:38.734Z,3043.13
2019-04-27T09:35:38.762Z,3110.63
2019-04-27T09:36:38.742Z,2773.13
2019-04-27T09:37:38.756Z,2688.75
2019-04-27T09:38:38.795Z,2643.75
2019-04-27T09:39:38.759Z,2649.38
2019-04-27T09:40:38.797Z,2750.63
2019-04-27T09:41:38.783Z,2761.88
2019-04-27T09:42:38.794Z,2677.50
2019-04-27T09:43:38.789Z,2649.38
2019-04-27T09:44:39.926Z,2638.13
2019-04-27T09:45:38.829Z,2576.25
2019-04-27T09:46:38.806Z,2536.88
2019-04-27T09:47:39.151Z,2553.75
2019-04-27T09:48:38.822Z,2683.13
2019-04-27T09:49:38.826Z,2700.00
2019-04-27T09:50:39.109Z,2626.88
2019-04-27T09:51:38.840Z,2745.00
2019-04-27T09:52:38.841Z,2902.50
2019-04-27T09:53:38.847Z,3380.63
2019-04-27T09:54:38.852Z,3785.63
2019-04-27T09:55:38.896Z,3915.00
2019-04-27T09:56:38.867Z,4455.00
2019-04-27T09:57:38.871Z,4741.88
2019-04-27T09:58:38.883Z,4781.25
2019-04-27T09:59:39.688Z,3583.13
2019-04-27T10:00:38.923Z,3718.13
2019-04-27T10:01:38.908Z,3881.25
2019-04-27T10:02:38.912Z,3695.63
2019-04-27T10:03:38.925Z,3408.75
2019-04-27T10:04:38.932Z,3678.75
2019-04-27T10:05:39.784Z,3211.88
2019-04-27T10:06:38.944Z,4275.00
2019-04-27T10:07:38.955Z,4359.38
2019-04-27T10:08:38.967Z,3864.38
2019-04-27T10:09:38.985Z,4348.13
2019-04-27T10:10:39.010Z,4455.00
2019-04-27T10:11:38.989Z,4269.38
2019-04-27T10:12:38.998Z,3903.75
2019-04-27T10:13:39.009Z,3105.00
2019-04-27T10:14:39.017Z,2508.75
2019-04-27T10:15:39.089Z,2368.13
2019-04-27T10:16:39.070Z,2480.63
2019-04-27T10:17:39.048Z,2244.38
2019-04-27T10:18:39.058Z,2289.38
2019-04-27T10:19:39.068Z,2351.25
2019-04-27T10:20:40.984Z,2514.38
2019-04-27T10:21:39.107Z,2835.00
2019-04-27T10:22:42.781Z,2295.00
2019-04-27T10:23:39.095Z,2227.50
2019-04-27T10:24:40.074Z,2210.63
2019-04-27T10:25:39.120Z,2188.13
2019-04-27T10:26:39.151Z,2188.13
2019-04-27T10:27:39.132Z,2131.88
2019-04-27T10:28:39.198Z,2075.63
2019-04-27T10:29:39.212Z,2193.75
2019-04-27T10:30:39.158Z,2486.25
2019-04-27T10:31:39.188Z,2295.00
2019-04-27T10:32:42.725Z,2278.13
2019-04-27T10:33:39.168Z,2176.88
2019-04-27T10:34:39.177Z,2092.50
2019-04-27T10:35:39.267Z,2064.38
2019-04-27T10:36:39.232Z,2064.38
2019-04-27T10:37:39.181Z,1991.25
2019-04-27T10:38:39.202Z,1929.38
2019-04-27T10:39:39.209Z,1901.25
2019-04-27T10:40:39.231Z,1878.75
2019-04-27T10:41:39.263Z,1873.13
2019-04-27T10:42:39.229Z,1884.38
2019-04-27T10:43:39.247Z,1901.25
2019-04-27T10:44:39.297Z,1957.50
2019-04-27T10:45:39.485Z,2036.25
2019-04-27T10:46:39.270Z,2081.25
2019-04-27T10:47:39.256Z,2115.00
2019-04-27T10:48:39.258Z,2120.63
2019-04-27T10:49:39.262Z,2154.38
2019-04-27T10:50:39.263Z,2345.63
2019-04-27T10:51:39.303Z,3301.88
2019-04-27T10:52:39.285Z,2536.88
2019-04-27T10:53:39.286Z,2300.63
2019-04-27T10:54:39.287Z,3121.88
2019-04-27T10:55:39.356Z,2970.00
2019-04-27T10:56:39.340Z,3217.50
2019-04-27T10:57:39.304Z,2705.63
2019-04-27T10:58:39.308Z,2047.50
2019-04-27T10:59:39.316Z,1980.00
2019-04-27T11:00:40.102Z,1783.13
2019-04-27T11:01:39.388Z,1783.13
2019-04-27T11:02:39.324Z,1687.50
2019-04-27T11:03:39.337Z,1749.38
2019-04-27T11:04:39.336Z,1850.63
2019-04-27T11:05:39.347Z,1828.13
2019-04-27T11:06:39.356Z,1963.13
2019-04-27T11:07:39.384Z,2064.38
2019-04-27T11:08:39.362Z,2160.00
2019-04-27T11:09:39.366Z,2300.63
2019-04-27T11:10:39.383Z,2148.75
2019-04-27T11:11:39.374Z,1912.50
2019-04-27T11:12:39.410Z,2002.50
2019-04-27T11:13:39.386Z,3234.38
2019-04-27T11:14:39.390Z,3375.00
2019-04-27T11:15:39.394Z,3189.38
2019-04-27T11:16:39.477Z,3223.13
2019-04-27T11:17:39.434Z,3245.63
2019-04-27T11:18:39.549Z,3532.50
2019-04-27T11:19:39.428Z,3436.88
2019-04-27T11:20:39.425Z,3166.88
2019-04-27T11:21:39.434Z,1906.88
2019-04-27T11:22:39.462Z,3622.50
2019-04-27T11:23:39.452Z,1968.75
2019-04-27T11:24:39.449Z,3943.13
2019-04-27T11:25:39.455Z,3684.38
2019-04-27T11:26:39.467Z,4055.63
2019-04-27T11:27:39.545Z,3892.50
2019-04-27T11:28:39.608Z,4404.38
2019-04-27T11:29:39.498Z,3628.13
2019-04-27T11:30:39.493Z,5011.88
2019-04-27T11:31:39.494Z,4848.75
2019-04-27T11:32:39.537Z,4651.88
2019-04-27T11:33:39.592Z,1507.50
2019-04-27T11:34:39.530Z,3600.00
2019-04-27T11:35:39.540Z,4843.13
2019-04-27T11:36:39.546Z,2705.63
2019-04-27T11:37:39.582Z,5169.38
2019-04-27T11:38:39.566Z,1541.25
2019-04-27T11:39:39.577Z,1338.75
2019-04-27T11:40:39.588Z,1321.88
2019-04-27T11:41:39.604Z,4860.00
2019-04-27T11:42:39.628Z,4871.25
2019-04-27T11:43:39.607Z,4978.13
2019-04-27T11:44:39.647Z,4989.38
2019-04-27T11:45:39.646Z,4702.50
2019-04-27T11:46:39.635Z,4674.38
2019-04-27T11:47:39.675Z,4415.63
2019-04-27T11:48:39.652Z,4218.75
2019-04-27T11:49:39.667Z,4196.25
2019-04-27T11:50:39.687Z,4370.63
2019-04-27T11:51:39.687Z,4646.25
2019-04-27T11:52:39.726Z,1614.38
2019-04-27T11:53:39.708Z,5118.75
2019-04-27T11:54:39.724Z,5298.75
2019-04-27T11:55:39.731Z,1912.50
2019-04-27T11:56:39.741Z,1186.88
2019-04-27T11:57:39.783Z,1108.13
2019-04-27T11:58:39.765Z,1175.63
2019-04-27T11:59:39.773Z,1372.50
2019-04-27T12:00:39.788Z,5383.13
2019-04-27T12:01:39.842Z,5298.75
2019-04-27T12:02:39.841Z,5225.63
2019-04-27T12:03:39.824Z,1642.50
2019-04-27T12:04:39.834Z,1963.13
2019-04-27T12:05:39.837Z,2115.00
2019-04-27T12:06:39.866Z,4753.13
2019-04-27T12:07:39.887Z,4899.38
2019-04-27T12:08:39.994Z,2829.38
2019-04-27T12:09:39.880Z,3937.50
2019-04-27T12:10:39.898Z,3200.63
2019-04-27T12:11:39.911Z,1468.13
2019-04-27T12:12:39.942Z,1383.75
2019-04-27T12:13:39.930Z,1344.38
2019-04-27T12:14:39.941Z,1366.88
2019-04-27T12:15:39.946Z,4561.88
2019-04-27T12:16:39.958Z,4764.38
2019-04-27T12:17:39.991Z,5073.75
2019-04-27T12:18:39.973Z,5062.50
2019-04-27T12:19:39.980Z,5006.25
2019-04-27T12:20:39.999Z,2739.38
2019-04-27T12:21:40.005Z,4713.75
2019-04-27T12:22:40.048Z,4640.63
2019-04-27T12:23:41.402Z,4713.75
2019-04-27T12:24:40.037Z,4753.13
2019-04-27T12:25:40.045Z,4865.63
2019-04-27T12:26:40.056Z,1513.13
2019-04-27T12:27:40.064Z,1451.25
2019-04-27T12:28:40.220Z,1490.63
2019-04-27T12:29:40.085Z,2430.00
2019-04-27T12:30:40.103Z,5146.88
2019-04-27T12:31:42.945Z,4876.88
2019-04-27T12:32:40.146Z,1794.38
2019-04-27T12:33:40.361Z,4500.00
2019-04-27T12:34:40.137Z,1288.13